createdAt,value
2023-03-02T00:01:33.890Z,100760.91
2023-03-02T00:04:02.488Z,100761.75
2023-03-02T00:06:31.481Z,100754.84
2023-03-02T00:09:02.729Z,100763.56
2023-03-02T00:11:31.638Z,100758.34
2023-03-02T00:13:58.244Z,100754.94
2023-03-02T00:16:25.396Z,100754.06
2023-03-02T00:18:51.863Z,100753.22
2023-03-02T00:21:18.405Z,100751.53
2023-03-02T00:23:45.000Z,100747.19
2023-03-02T00:26:11.589Z,100743.75
2023-03-02T00:28:38.086Z,100742.88
2023-03-02T00:31:05.553Z,100749.00
2023-03-02T00:33:33.347Z,100754.22
2023-03-02T00:35:59.920Z,100751.63
2023-03-02T00:38:27.653Z,100751.66
2023-03-02T00:40:55.455Z,100744.72
2023-03-02T00:43:27.392Z,100746.50
2023-03-02T00:45:55.252Z,100751.72
2023-03-02T00:48:21.986Z,100755.25
2023-03-02T00:50:48.495Z,100756.16
2023-03-02T00:53:15.010Z,100753.56
2023-03-02T00:55:41.412Z,100749.25
2023-03-02T00:58:07.941Z,100749.28
2023-03-02T01:00:35.586Z,100745.78
2023-03-02T01:03:02.210Z,100750.16
2023-03-02T01:05:28.881Z,100746.66
2023-03-02T01:07:55.368Z,100746.66
2023-03-02T01:10:21.831Z,100746.63
2023-03-02T01:12:48.316Z,100746.63
2023-03-02T01:15:14.935Z,100747.44
2023-03-02T01:17:42.869Z,100743.94
2023-03-02T01:20:10.895Z,100744.81
2023-03-02T01:22:37.493Z,100736.09
2023-03-02T01:25:04.593Z,100734.28
2023-03-02T01:27:31.101Z,100741.22
2023-03-02T01:29:57.512Z,100739.47
2023-03-02T01:32:24.098Z,100738.56
2023-03-02T01:34:50.741Z,100732.44
2023-03-02T01:37:17.229Z,100736.78
2023-03-02T01:39:43.687Z,100735.03
2023-03-02T01:42:10.122Z,100739.38
2023-03-02T01:44:48.957Z,100729.84
2023-03-02T01:47:23.442Z,100732.44
2023-03-02T01:49:58.882Z,100738.50
2023-03-02T01:52:26.838Z,100733.28
2023-03-02T01:54:58.497Z,100736.78
2023-03-02T01:57:32.899Z,100735.94
2023-03-02T02:00:08.626Z,100732.44
2023-03-02T02:02:36.331Z,100734.16
2023-03-02T02:05:03.804Z,100740.25
2023-03-02T02:07:30.546Z,100735.06
2023-03-02T02:09:57.360Z,100732.53
2023-03-02T02:12:24.166Z,100730.84
2023-03-02T02:14:51.285Z,100734.34
2023-03-02T02:17:18.993Z,100735.22
2023-03-02T02:19:51.357Z,100724.88
2023-03-02T02:22:44.927Z,100717.09
2023-03-02T02:25:33.801Z,100724.03
2023-03-02T02:28:02.539Z,100714.47
2023-03-02T02:30:29.640Z,100708.41
2023-03-02T02:32:58.453Z,100717.13
2023-03-02T02:35:28.372Z,100714.59
2023-03-02T02:38:02.324Z,100712.00
2023-03-02T02:40:58.606Z,100705.13
2023-03-02T02:43:27.684Z,100709.47
2023-03-02T02:45:57.849Z,100712.16
2023-03-02T02:48:27.126Z,100709.56
2023-03-02T02:53:33.077Z,100705.28
2023-03-02T02:56:00.694Z,100702.75
2023-03-02T02:58:40.225Z,100703.66
2023-03-02T03:01:07.916Z,100704.53
2023-03-02T03:03:37.597Z,100707.19
2023-03-02T03:06:08.901Z,100708.94
2023-03-02T03:08:41.334Z,100707.22
2023-03-02T03:11:09.675Z,100698.59
2023-03-02T03:13:37.686Z,100697.72
2023-03-02T03:16:07.758Z,100697.75
2023-03-02T03:18:34.220Z,100696.03
2023-03-02T03:21:00.787Z,100699.53
2023-03-02T03:23:27.316Z,100701.25
2023-03-02T03:25:53.812Z,100689.13
2023-03-02T03:28:20.316Z,100693.44
2023-03-02T03:30:47.062Z,100696.09
2023-03-02T03:33:13.627Z,100695.22
2023-03-02T03:35:40.230Z,100679.59
2023-03-02T03:38:07.773Z,100692.63
2023-03-02T03:40:34.575Z,100688.28
2023-03-02T03:43:02.357Z,100684.81
2023-03-02T03:45:30.513Z,100694.34
2023-03-02T03:47:57.606Z,100678.78
2023-03-02T03:50:24.752Z,100684.91
2023-03-02T03:52:51.492Z,100686.63
2023-03-02T03:55:18.225Z,100688.41
2023-03-02T03:57:45.128Z,100691.03
2023-03-02T04:00:17.726Z,100695.38
2023-03-02T04:02:44.269Z,100691.03
2023-03-02T04:05:11.348Z,100683.22
2023-03-02T04:07:39.057Z,100691.84
2023-03-02T04:10:07.345Z,100692.75
2023-03-02T04:12:36.284Z,100696.22
2023-03-02T04:15:04.068Z,100692.72
2023-03-02T04:17:30.631Z,100700.53
2023-03-02T04:19:57.305Z,100699.63
2023-03-02T04:22:23.752Z,100697.91
2023-03-02T04:24:50.470Z,100697.91
2023-03-02T04:27:17.318Z,100693.53
2023-03-02T04:29:45.420Z,100701.31
2023-03-02T04:32:14.787Z,100697.84
2023-03-02T04:34:41.654Z,100695.22
2023-03-02T04:37:08.135Z,100692.59
2023-03-02T04:39:34.592Z,100695.19
2023-03-02T04:42:01.006Z,100697.72
2023-03-02T04:44:27.667Z,100687.31
2023-03-02T04:46:54.296Z,100691.63
2023-03-02T04:49:20.893Z,100695.09
2023-03-02T04:51:49.514Z,100687.28
2023-03-02T04:54:21.787Z,100681.22
2023-03-02T04:56:48.718Z,100676.88
2023-03-02T04:59:16.712Z,100684.69
2023-03-02T05:01:44.540Z,100675.16
2023-03-02T05:04:11.572Z,100671.69
2023-03-02T05:06:38.439Z,100675.16
2023-03-02T05:09:05.606Z,100675.09
2023-03-02T05:11:32.521Z,100673.34
2023-03-02T05:14:02.168Z,100671.59
2023-03-02T05:16:32.886Z,100667.25
2023-03-02T05:19:01.573Z,100668.97
2023-03-02T05:21:28.295Z,100666.34
2023-03-02T05:23:54.913Z,100672.44
2023-03-02T05:26:21.387Z,100668.06
2023-03-02T05:28:48.016Z,100672.44
2023-03-02T05:31:29.976Z,100669.88
2023-03-02T05:33:57.065Z,100668.13
2023-03-02T05:36:23.750Z,100667.25
2023-03-02T05:38:50.306Z,100665.53
2023-03-02T05:41:17.151Z,100668.16
2023-03-02T05:43:44.078Z,100668.16
2023-03-02T05:46:10.702Z,100664.66
2023-03-02T05:48:37.166Z,100664.66
2023-03-02T05:51:04.250Z,100673.38
2023-03-02T05:53:30.755Z,100670.75
2023-03-02T05:55:57.307Z,100671.63
2023-03-02T05:58:23.830Z,100669.03
2023-03-02T06:00:50.334Z,100669.88
2023-03-02T06:03:17.079Z,100675.09
2023-03-02T06:05:43.813Z,100668.19
2023-03-02T06:08:10.841Z,100675.16
2023-03-02T06:10:38.200Z,100685.56
2023-03-02T06:13:04.686Z,100682.13
2023-03-02T06:15:31.189Z,100681.28
2023-03-02T06:17:57.779Z,100683.91
2023-03-02T06:20:24.565Z,100684.78
2023-03-02T06:22:51.408Z,100686.50
2023-03-02T06:25:23.469Z,100695.13
2023-03-02T06:27:53.976Z,100695.09
2023-03-02T06:30:25.388Z,100702.91
2023-03-02T06:32:52.149Z,100697.69
2023-03-02T06:35:19.062Z,100698.59
2023-03-02T06:37:45.730Z,100709.03
2023-03-02T06:40:13.933Z,100711.63
2023-03-02T06:42:42.029Z,100710.78
2023-03-02T06:45:10.295Z,100714.22
2023-03-02T06:47:36.827Z,100720.31
2023-03-02T06:50:03.917Z,100720.25
2023-03-02T06:52:30.558Z,100712.41
2023-03-02T06:54:57.070Z,100716.72
2023-03-02T06:57:23.670Z,100708.91
2023-03-02T06:59:50.145Z,100716.69
2023-03-02T07:02:16.606Z,100705.38
2023-03-02T07:04:43.116Z,100711.41
2023-03-02T07:07:09.675Z,100716.59
2023-03-02T07:09:36.167Z,100715.75
2023-03-02T07:12:02.736Z,100708.78
2023-03-02T07:14:29.376Z,100712.25
2023-03-02T07:16:57.494Z,100711.34
2023-03-02T07:19:24.332Z,100718.28
2023-03-02T07:21:50.852Z,100715.66
2023-03-02T07:24:17.417Z,100712.16
2023-03-02T07:26:43.910Z,100710.41
2023-03-02T07:29:10.356Z,100715.63
2023-03-02T07:31:36.824Z,100705.16
2023-03-02T07:34:03.392Z,100705.16
2023-03-02T07:36:30.072Z,100706.00
2023-03-02T07:38:56.544Z,100707.72
2023-03-02T07:41:23.138Z,100712.91
2023-03-02T07:43:49.601Z,100706.81
2023-03-02T07:46:16.474Z,100700.72
2023-03-02T07:48:42.965Z,100698.09
2023-03-02T07:51:09.417Z,100698.09
2023-03-02T07:53:35.987Z,100693.72
2023-03-02T07:56:07.136Z,100692.84
2023-03-02T07:58:35.270Z,100699.75
2023-03-02T08:01:01.947Z,100704.88
2023-03-02T08:03:28.560Z,100701.41
2023-03-02T08:05:55.130Z,100706.59
2023-03-02T08:08:21.743Z,100703.13
2023-03-02T08:10:48.240Z,100694.41
2023-03-02T08:13:14.756Z,100699.63
2023-03-02T08:15:41.224Z,100701.31
2023-03-02T08:18:07.763Z,100699.59
2023-03-02T08:20:34.289Z,100703.91
2023-03-02T08:23:00.792Z,100704.72
2023-03-02T08:25:27.362Z,100700.34
2023-03-02T08:27:53.888Z,100702.03
2023-03-02T08:30:20.544Z,100693.25
2023-03-02T08:32:47.118Z,100694.94
2023-03-02T08:35:13.580Z,100701.81
2023-03-02T08:37:40.043Z,100699.16
2023-03-02T08:40:07.276Z,100703.47
2023-03-02T08:42:33.843Z,100697.31
2023-03-02T08:45:00.363Z,100705.97
2023-03-02T08:47:26.914Z,100700.75
2023-03-02T08:52:34.777Z,100691.97
2023-03-02T08:55:03.644Z,100698.84
2023-03-02T08:57:30.466Z,100698.81
2023-03-02T08:59:57.008Z,100704.81
2023-03-02T09:02:23.577Z,100690.03
2023-03-02T09:04:50.131Z,100699.53
2023-03-02T09:07:17.423Z,100702.94
2023-03-02T09:09:44.116Z,100695.00
2023-03-02T09:12:10.763Z,100694.91
2023-03-02T09:14:37.296Z,100688.75
2023-03-02T09:17:04.130Z,100693.03
2023-03-02T09:19:30.676Z,100686.88
2023-03-02T09:21:57.131Z,100679.84
2023-03-02T09:24:23.686Z,100687.63
2023-03-02T09:26:50.528Z,100687.56
2023-03-02T09:29:16.976Z,100680.59
2023-03-02T09:31:43.451Z,100675.38
2023-03-02T09:34:09.917Z,100684.03
2023-03-02T09:36:36.552Z,100690.06
2023-03-02T09:39:08.526Z,100677.81
2023-03-02T09:42:07.854Z,100691.72
2023-03-02T09:45:00.006Z,100685.53
2023-03-02T09:47:52.809Z,100694.13
2023-03-02T09:50:35.226Z,100695.81
2023-03-02T09:53:39.377Z,100697.47
2023-03-02T09:56:14.594Z,100699.03
2023-03-02T09:58:42.926Z,100698.09
2023-03-02T10:01:21.757Z,100703.28
2023-03-02T10:03:56.398Z,100698.91
2023-03-02T10:06:26.878Z,100695.38
2023-03-02T10:08:53.408Z,100699.69
2023-03-02T10:11:29.590Z,100702.31
2023-03-02T10:14:04.555Z,100698.81
2023-03-02T10:16:37.935Z,100702.31
2023-03-02T10:19:26.022Z,100701.53
2023-03-02T10:22:10.573Z,100703.28
2023-03-02T10:24:48.240Z,100699.75
2023-03-02T10:27:26.084Z,100701.41
2023-03-02T10:30:10.912Z,100697.88
2023-03-02T10:32:43.800Z,100703.94
2023-03-02T10:35:23.146Z,100704.69
2023-03-02T10:37:59.962Z,100699.25
2023-03-02T10:40:45.316Z,100694.69
2023-03-02T10:43:31.689Z,100696.94
2023-03-02T10:46:03.194Z,100693.91
2023-03-02T10:48:29.914Z,100693.53
2023-03-02T10:50:58.502Z,100693.16
2023-03-02T10:53:25.179Z,100688.38
2023-03-02T10:55:53.541Z,100687.88
2023-03-02T10:58:22.887Z,100693.38
2023-03-02T11:01:04.477Z,100688.50
2023-03-02T11:03:32.588Z,100695.81
2023-03-02T11:06:18.172Z,100690.34
2023-03-02T11:08:44.740Z,100697.00
2023-03-02T11:11:22.440Z,100687.38
2023-03-02T11:13:49.003Z,100691.50
2023-03-02T11:16:18.277Z,100692.19
2023-03-02T11:18:51.867Z,100687.63
2023-03-02T11:21:28.712Z,100688.31
2023-03-02T11:24:02.191Z,100689.00
2023-03-02T11:26:44.381Z,100687.13
2023-03-02T11:29:10.887Z,100684.19
2023-03-02T11:31:45.866Z,100692.75
2023-03-02T11:34:34.891Z,100685.34
2023-03-02T11:37:15.524Z,100685.41
2023-03-02T11:39:54.948Z,100682.66
2023-03-02T11:42:27.955Z,100673.44
2023-03-02T11:44:55.474Z,100674.34
2023-03-02T11:47:23.086Z,100668.78
2023-03-02T11:49:59.022Z,100665.47
2023-03-02T11:52:30.123Z,100659.75
2023-03-02T11:55:03.105Z,100656.31
2023-03-02T11:57:32.736Z,100651.94
2023-03-02T12:00:00.568Z,100651.06
2023-03-02T12:02:27.528Z,100647.06
2023-03-02T12:05:23.466Z,100645.69
2023-03-02T12:08:01.762Z,100643.84
2023-03-02T12:10:36.441Z,100637.56
2023-03-02T12:13:28.517Z,100636.09
2023-03-02T12:15:58.646Z,100628.41
2023-03-02T12:18:25.302Z,100622.84
2023-03-02T12:21:13.789Z,100624.00
2023-03-02T12:23:49.234Z,100617.81
2023-03-02T12:26:21.491Z,100610.44
2023-03-02T12:29:05.567Z,100610.34
2023-03-02T12:31:42.993Z,100606.34
2023-03-02T12:34:24.348Z,100603.63
2023-03-02T12:36:54.592Z,100603.31
2023-03-02T12:39:42.915Z,100602.91
2023-03-02T12:42:30.574Z,100597.34
2023-03-02T12:45:11.853Z,100591.88
2023-03-02T12:47:44.506Z,100585.53
2023-03-02T12:50:27.362Z,100591.63
2023-03-02T12:53:02.849Z,100585.22
2023-03-02T12:55:30.309Z,100578.94
2023-03-02T12:58:01.088Z,100569.81
2023-03-02T13:00:32.907Z,100573.22
2023-03-02T13:03:02.119Z,100564.88
2023-03-02T13:05:31.473Z,100561.50
2023-03-02T13:08:01.842Z,100563.75
2023-03-02T13:10:41.142Z,100549.31
2023-03-02T13:13:39.311Z,100552.97
2023-03-02T13:16:18.193Z,100547.41
2023-03-02T13:18:45.806Z,100542.34
2023-03-02T13:21:14.505Z,100531.50
2023-03-02T13:23:50.276Z,100536.00
2023-03-02T13:26:37.104Z,100534.06
2023-03-02T13:29:07.258Z,100528.94
2023-03-02T13:31:34.985Z,100534.75
2023-03-02T13:34:01.772Z,100532.19
2023-03-02T13:36:41.497Z,100539.38
2023-03-02T13:39:19.776Z,100541.09
2023-03-02T13:41:55.691Z,100534.44
2023-03-02T13:44:28.072Z,100535.41
2023-03-02T13:46:55.554Z,100535.00
2023-03-02T13:49:32.877Z,100535.81
2023-03-02T13:52:08.162Z,100524.91
2023-03-02T13:54:37.046Z,100529.56
2023-03-02T13:57:05.652Z,100521.44
2023-03-02T13:59:36.431Z,100528.69
2023-03-02T14:02:03.379Z,100519.34
2023-03-02T14:04:29.923Z,100519.97
2023-03-02T14:06:56.609Z,100520.16
2023-03-02T14:09:23.292Z,100520.13
2023-03-02T14:11:53.375Z,100514.91
2023-03-02T14:14:23.383Z,100507.88
2023-03-02T14:16:50.449Z,100504.91
2023-03-02T14:19:18.370Z,100504.28
2023-03-02T14:21:46.054Z,100505.09
2023-03-02T14:24:12.792Z,100507.16
2023-03-02T14:26:44.455Z,100499.91
2023-03-02T14:29:19.765Z,100497.91
2023-03-02T14:31:46.286Z,100500.41
2023-03-02T14:34:14.184Z,100501.66
2023-03-02T14:36:43.836Z,100495.50
2023-03-02T14:39:35.661Z,100492.97
2023-03-02T14:42:02.601Z,100485.84
2023-03-02T14:44:29.188Z,100491.34
2023-03-02T14:46:57.575Z,100490.72
2023-03-02T14:49:25.137Z,100479.66
2023-03-02T14:52:02.581Z,100479.97
2023-03-02T14:54:38.297Z,100482.94
2023-03-02T14:57:06.245Z,100484.91
2023-03-02T14:59:32.668Z,100480.25
2023-03-02T15:02:06.093Z,100481.94
2023-03-02T15:04:36.929Z,100480.81
2023-03-02T15:07:03.502Z,100480.66
2023-03-02T15:09:29.895Z,100467.34
2023-03-02T15:11:56.348Z,100477.81
2023-03-02T15:14:22.791Z,100469.75
2023-03-02T15:16:49.265Z,100471.31
2023-03-02T15:19:15.692Z,100469.38
2023-03-02T15:21:44.791Z,100460.63
2023-03-02T15:24:11.842Z,100465.16
2023-03-02T15:26:41.132Z,100471.09
2023-03-02T15:29:08.394Z,100465.31
2023-03-02T15:31:35.217Z,100473.69
2023-03-02T15:34:01.939Z,100479.06
2023-03-02T15:36:28.358Z,100476.22
2023-03-02T15:38:55.112Z,100474.81
2023-03-02T15:41:21.715Z,100470.06
2023-03-02T15:43:52.460Z,100473.41
2023-03-02T15:46:20.434Z,100470.72
2023-03-02T15:48:46.913Z,100474.94
2023-03-02T15:51:13.684Z,100473.78
2023-03-02T15:53:40.211Z,100483.03
2023-03-02T15:56:07.959Z,100482.22
2023-03-02T15:58:35.704Z,100486.47
2023-03-02T16:01:12.191Z,100483.50
2023-03-02T16:03:38.642Z,100479.78
2023-03-02T16:06:05.503Z,100485.72
2023-03-02T16:08:31.834Z,100489.47
2023-03-02T16:11:05.343Z,100490.53
2023-03-02T16:13:32.210Z,100485.06
2023-03-02T16:16:05.852Z,100495.44
2023-03-02T16:18:32.924Z,100502.81
2023-03-02T16:20:59.355Z,100500.59
2023-03-02T16:23:25.767Z,100501.69
2023-03-02T16:25:52.264Z,100504.44
2023-03-02T16:28:19.528Z,100506.31
2023-03-02T16:30:46.279Z,100507.13
2023-03-02T16:33:16.980Z,100508.03
2023-03-02T16:35:43.567Z,100504.50
2023-03-02T16:38:10.363Z,100504.28
2023-03-02T16:40:39.933Z,100507.69
2023-03-02T16:43:08.802Z,100506.47
2023-03-02T16:45:35.895Z,100508.78
2023-03-02T16:48:03.513Z,100516.28
2023-03-02T16:50:29.962Z,100505.31
2023-03-02T16:52:58.111Z,100507.44
2023-03-02T16:55:24.890Z,100513.91
2023-03-02T16:57:51.255Z,100506.38
2023-03-02T17:00:23.369Z,100514.59
2023-03-02T17:03:00.923Z,100517.63
2023-03-02T17:05:27.311Z,100519.66
2023-03-02T17:07:54.938Z,100526.13
2023-03-02T17:10:21.848Z,100521.97
2023-03-02T17:12:48.241Z,100521.38
2023-03-02T17:15:14.957Z,100525.97
2023-03-02T17:17:41.404Z,100533.25
2023-03-02T17:20:11.314Z,100530.97
2023-03-02T17:22:38.150Z,100531.28
2023-03-02T17:25:05.556Z,100534.94
2023-03-02T17:27:32.022Z,100545.66
2023-03-02T17:29:58.496Z,100543.19
2023-03-02T17:32:25.003Z,100543.38
2023-03-02T17:34:51.452Z,100552.25
2023-03-02T17:37:17.879Z,100550.69
2023-03-02T17:39:44.254Z,100550.78
2023-03-02T17:42:10.739Z,100555.31
2023-03-02T17:44:40.398Z,100559.81
2023-03-02T17:47:08.235Z,100558.16
2023-03-02T17:49:39.078Z,100562.72
2023-03-02T17:52:05.864Z,100560.19
2023-03-02T17:54:32.476Z,100555.16
2023-03-02T17:56:58.892Z,100555.22
2023-03-02T17:59:25.284Z,100565.88
2023-03-02T18:01:51.657Z,100562.56
2023-03-02T18:04:18.191Z,100555.72
2023-03-02T18:06:44.682Z,100561.97
2023-03-02T18:09:11.091Z,100564.69
2023-03-02T18:11:37.548Z,100568.25
2023-03-02T18:14:03.961Z,100563.16
2023-03-02T18:16:30.769Z,100570.19
2023-03-02T18:18:57.681Z,100563.38
2023-03-02T18:21:24.256Z,100563.41
2023-03-02T18:23:51.085Z,100568.72
2023-03-02T18:26:17.628Z,100570.59
2023-03-02T18:28:44.107Z,100575.91
2023-03-02T18:31:13.441Z,100577.78
2023-03-02T18:33:39.880Z,100584.88
2023-03-02T18:36:06.601Z,100575.47
2023-03-02T18:38:34.060Z,100587.84
2023-03-02T18:41:03.084Z,100585.41
2023-03-02T18:43:32.559Z,100585.59
2023-03-02T18:45:58.970Z,100589.22
2023-03-02T18:48:25.361Z,100578.03
2023-03-02T18:50:51.793Z,100582.44
2023-03-02T18:53:18.184Z,100585.94
2023-03-02T18:55:44.521Z,100583.31
2023-03-02T18:58:18.433Z,100589.50
2023-03-02T19:00:46.128Z,100592.06
2023-03-02T19:03:15.093Z,100586.91
2023-03-02T19:05:42.260Z,100587.78
2023-03-02T19:08:09.085Z,100590.44
2023-03-02T19:10:36.581Z,100592.25
2023-03-02T19:13:03.514Z,100586.19
2023-03-02T19:15:32.891Z,100601.94
2023-03-02T19:17:59.264Z,100599.41
2023-03-02T19:20:27.155Z,100597.78
2023-03-02T19:22:54.881Z,100592.69
2023-03-02T19:25:21.833Z,100605.00
2023-03-02T19:27:48.713Z,100596.41
2023-03-02T19:30:19.956Z,100591.34
2023-03-02T19:32:46.886Z,100600.06
2023-03-02T19:35:17.748Z,100596.63
2023-03-02T19:37:44.804Z,100600.97
2023-03-02T19:40:13.343Z,100616.66
2023-03-02T19:42:45.071Z,100616.66
2023-03-02T19:45:16.228Z,100616.75
2023-03-02T19:47:43.011Z,100615.88
2023-03-02T19:50:10.100Z,100602.91
2023-03-02T19:52:37.381Z,100610.78
2023-03-02T19:55:05.478Z,100604.91
2023-03-02T19:57:32.013Z,100605.78
2023-03-02T19:59:58.365Z,100614.50
2023-03-02T20:02:24.833Z,100618.88
2023-03-02T20:04:52.175Z,100616.31
2023-03-02T20:07:19.363Z,100614.66
2023-03-02T20:09:46.222Z,100621.66
2023-03-02T20:12:12.921Z,100613.06
2023-03-02T20:14:40.554Z,100614.00
2023-03-02T20:17:06.940Z,100615.03
2023-03-02T20:19:33.289Z,100611.69
2023-03-02T20:21:59.607Z,100617.88
2023-03-02T20:24:26.036Z,100618.00
2023-03-02T20:26:52.519Z,100621.59
2023-03-02T20:29:19.492Z,100619.94
2023-03-02T20:31:46.175Z,100631.28
2023-03-02T20:34:15.812Z,100626.09
2023-03-02T20:36:43.460Z,100628.72
2023-03-02T20:39:16.380Z,100621.81
2023-03-02T20:41:43.186Z,100631.38
2023-03-02T20:44:12.259Z,100619.16
2023-03-02T20:46:44.954Z,100632.22
2023-03-02T20:49:15.269Z,100633.09
2023-03-02T20:54:51.634Z,100632.28
2023-03-02T20:57:20.261Z,100632.34
2023-03-02T20:59:47.835Z,100631.50
2023-03-02T21:02:15.570Z,100626.31
2023-03-02T21:04:42.759Z,100626.34
2023-03-02T21:07:10.249Z,100624.63
2023-03-02T21:09:37.574Z,100633.38
2023-03-02T21:12:04.711Z,100638.63
2023-03-02T21:14:33.198Z,100642.97
2023-03-02T21:17:01.432Z,100643.00
2023-03-02T21:19:30.949Z,100651.69
2023-03-02T21:21:58.075Z,100649.97
2023-03-02T21:24:25.033Z,100642.06
2023-03-02T21:26:53.850Z,100642.06
2023-03-02T21:29:23.237Z,100638.56
2023-03-02T21:31:50.045Z,100639.41
2023-03-02T21:34:18.797Z,100637.69
2023-03-02T21:36:46.182Z,100641.19
2023-03-02T21:39:13.628Z,100640.34
2023-03-02T21:41:40.352Z,100642.13
2023-03-02T21:44:07.355Z,100646.50
2023-03-02T21:46:36.209Z,100653.50
2023-03-02T21:49:03.537Z,100643.91
2023-03-02T21:51:30.244Z,100648.31
2023-03-02T21:53:56.732Z,100646.56
2023-03-02T21:56:24.908Z,100644.88
2023-03-02T21:58:53.295Z,100648.41
2023-03-02T22:01:20.834Z,100631.97
2023-03-02T22:03:47.384Z,100632.91
2023-03-02T22:06:22.296Z,100637.25
2023-03-02T22:08:49.252Z,100635.53
2023-03-02T22:11:37.320Z,100633.88
2023-03-02T22:14:13.043Z,100626.91
2023-03-02T22:16:44.233Z,100625.13
2023-03-02T22:19:23.354Z,100628.66
2023-03-02T22:21:50.424Z,100629.44
2023-03-02T22:24:26.859Z,100631.22
2023-03-02T22:26:59.239Z,100630.31
2023-03-02T22:29:25.697Z,100626.75
2023-03-02T22:31:54.797Z,100622.44
2023-03-02T22:34:27.359Z,100624.19
2023-03-02T22:36:59.948Z,100623.25
2023-03-02T22:39:32.839Z,100627.63
2023-03-02T22:42:07.290Z,100631.94
2023-03-02T22:44:34.301Z,100631.00
2023-03-02T22:47:01.711Z,100630.13
2023-03-02T22:49:29.910Z,100637.13
2023-03-02T22:52:01.624Z,100644.06
2023-03-02T22:54:37.223Z,100624.91
2023-03-02T22:57:03.986Z,100628.38
2023-03-02T22:59:37.180Z,100634.47
2023-03-02T23:02:15.263Z,100641.44
2023-03-02T23:04:42.044Z,100642.22
2023-03-02T23:07:20.168Z,100644.03
2023-03-02T23:09:47.147Z,100637.91
2023-03-02T23:12:23.042Z,100644.06
2023-03-02T23:14:55.177Z,100632.75
2023-03-02T23:17:30.606Z,100633.63
2023-03-02T23:19:57.668Z,100631.00
2023-03-02T23:22:28.376Z,100624.91
2023-03-02T23:24:55.879Z,100624.09
2023-03-02T23:27:24.312Z,100627.59
2023-03-02T23:29:52.244Z,100631.97
2023-03-02T23:32:19.601Z,100622.41
2023-03-02T23:34:46.530Z,100631.06
2023-03-02T23:37:13.094Z,100632.75
2023-03-02T23:39:39.626Z,100631.03
2023-03-02T23:42:06.244Z,100634.50
2023-03-02T23:44:32.708Z,100626.63
2023-03-02T23:46:59.518Z,100624.88
2023-03-02T23:49:26.065Z,100635.25
2023-03-02T23:51:52.517Z,100631.72
2023-03-02T23:54:18.946Z,100627.31
2023-03-02T23:56:45.457Z,100632.50
2023-03-02T23:59:11.798Z,100622.91
